< < Back
Terminal Aerodrome Forecast


Current Version              Previous Versions:   1  2  3  4  5  6  7  8  9  

Terminal Aerodrome Forecast

257
FTUS42 KGSP 221501 AAB
TAFAND
TAF AMD
KAND 221501Z 2215/2312 05009KT 5SM BR OVC007
      TEMPO 2215/2218 2SM -DZ BR OVC004
     FM221900 06008KT P6SM OVC011
     FM230100 07008KT 4SM BR OVC006
     FM230700 06007KT 2SM -RA BR OVC004=

Latest METAR

679
SAUS70 KWBC 222300 RRC
MTRAND
METAR KAND 222256Z AUTO 05007KT 4SM -RA BR OVC006 05/04 A3001 RMK AO2
RAE2157B37 SLP162 P0001 T00500044


USA.gov is the U.S. government's official web portal to all federal, state and local government web resources and services.